Time;durP1;ratioP1;P1;durP2;ratioP2;P2;SDS_P1;SDS_P2;PMS_P1;PMS_P2;Temp;Humidity;BMP_temperature;BMP_pressure;BME280_temperature;BME280_humidity;BME280_pressure;Samples;Min_cycle;Max_cycle;Signal;HPM_P1;HPM_P2
2023/07/03 00:01:44;;;;;;;;;;;;;;;;;;5052013;28;1105;-61
2023/07/03 00:04:10;;;;;;;;;;;;;;;;;;5050912;28;4680;-61
2023/07/03 00:06:36;;;;;;;;;;;;;;;;;;5051421;28;5080;-61
2023/07/03 00:09:03;;;;;;;;;;;;;;;;;;5050358;28;5124;-61
2023/07/03 00:11:28;;;;;;;;;;;;;;;;;;5050978;28;4682;-61
2023/07/03 00:13:54;;;;;;;;;;;;;;;;;;5050552;28;1341;-61
2023/07/03 00:16:19;;;;;;;;;;;;;;;;;;5051143;28;5022;-60
2023/07/03 00:18:44;;;;;;;;;;;;;;;;;;5050918;28;4475;-61
2023/07/03 00:21:10;;;;;;;;;;;;;;;;;;5051105;28;4530;-60
2023/07/03 00:23:36;;;;;;;;;;;;;;;;;;5051030;28;4536;-61
2023/07/03 00:26:01;;;;;;;;;;;;;;;;;;5050948;28;1137;-60
2023/07/03 00:28:26;;;;;;;;;;;;;;;;;;5045022;28;4832;-60
2023/07/03 00:30:51;;;;;;;;;;;;;;;;;;5051112;28;5137;-61
2023/07/03 00:33:16;;;;;;;;;;;;;;;;;;5050056;28;4636;-60
2023/07/03 00:35:42;;;;;;;;;;;;;;;;;;5049167;28;4957;-61
2023/07/03 00:38:08;;;;;;;;;;;;;;;;;;5049795;28;4613;-61
2023/07/03 00:40:33;;;;;;;;;;;;;;;;;;5045159;28;3449;-61
2023/07/03 00:42:59;;;;;;;;;;;;;;;;;;5045182;28;4434;-60
2023/07/03 00:45:24;;;;;;;;;;;;;;;;;;5049506;28;4509;-61
2023/07/03 00:47:49;;;;;;;;;;;;;;;;;;5045124;28;5023;-61
2023/07/03 00:50:14;;;;;;;;;;;;;;;;;;5050189;28;4902;-61
2023/07/03 00:52:41;;;;;;;;;;;;;;;;;;5049870;28;3294;-60
2023/07/03 00:55:06;;;;;;;;;;;;;;;;;;5062530;28;5142;-61
2023/07/03 00:57:31;;;;;;;;;;;;;;;;;;5049859;28;4875;-61
2023/07/03 00:59:57;;;;;;;;;;;;;;;;;;5048379;28;5095;-61
2023/07/03 01:02:25;;;;;;;;;;;;;;;;;;5049039;28;5035;-60
2023/07/03 01:04:58;;;;;;;;;;;;;;;;;;5065993;28;1140;-60
2023/07/03 01:07:41;;;;;;;;;;;;;;;;;;5064818;28;5003;-60
2023/07/03 01:10:20;;;;;;;;;;;;;;;;;;5031852;28;4478;-60
2023/07/03 01:12:46;;;;;;;;;;;;;;;;;;5048359;28;4487;-61
2023/07/03 01:15:12;;;;;;;;;;;;;;;;;;5049550;28;5001;-60
2023/07/03 01:17:37;;;;;;;;;;;;;;;;;;5065044;28;5269;-61
2023/07/03 01:20:04;;;;;;;;;;;;;;;;;;5064829;28;4603;-60
2023/07/03 01:22:29;;;;;;;;;;;;;;;;;;5048305;28;1149;-61
2023/07/03 01:25:05;;;;;;;;;;;;;;;;;;5047143;28;5010;-61
2023/07/03 01:27:31;;;;;;;;;;;;;;;;;;5047999;28;4486;-60
2023/07/03 01:29:56;;;;;;;;;;;;;;;;;;5065155;28;5044;-60
2023/07/03 01:32:22;;;;;;;;;;;;;;;;;;5027159;28;4584;-61
2023/07/03 01:34:48;;;;;;;;;;;;;;;;;;5064522;28;4950;-60
2023/07/03 01:37:13;;;;;;;;;;;;;;;;;;5063701;28;5103;-61
2023/07/03 01:39:38;;;;;;;;;;;;;;;;;;5031220;28;4676;-60
2023/07/03 01:42:04;;;;;;;;;;;;;;;;;;5064650;28;4674;-61
2023/07/03 01:44:29;;;;;;;;;;;;;;;;;;5031164;28;5073;-60
2023/07/03 01:46:54;;;;;;;;;;;;;;;;;;5032002;28;1157;-61
2023/07/03 01:49:20;;;;;;;;;;;;;;;;;;5048840;28;5018;-61
2023/07/03 01:52:05;;;;;;;;;;;;;;;;;;5045426;28;5057;-61
2023/07/03 01:54:42;;;;;;;;;;;;;;;;;;5047343;28;4952;-61
2023/07/03 01:57:09;;;;;;;;;;;;;;;;;;5048837;28;5099;-61
2023/07/03 01:59:34;;;;;;;;;;;;;;;;;;5048317;28;4524;-61
2023/07/03 02:02:20;;;;;;;;;;;;;;;;;;5049099;28;1132;-61
2023/07/03 02:04:57;;;;;;;;;;;;;;;;;;5047474;28;4998;-60
2023/07/03 02:07:22;;;;;;;;;;;;;;;;;;5030678;28;5024;-60
2023/07/03 02:09:48;;;;;;;;;;;;;;;;;;5062503;28;4527;-60
2023/07/03 02:12:13;;;;;;;;;;;;;;;;;;5063652;28;5005;-60
2023/07/03 02:14:38;;;;;;;;;;;;;;;;;;5048357;28;5033;-60
2023/07/03 02:17:06;;;;;;;;;;;;;;;;;;5048798;28;5377;-60
2023/07/03 02:19:33;;;;;;;;;;;;;;;;;;5047384;28;3275;-60
2023/07/03 02:21:58;;;;;;;;;;;;;;;;;;5063184;28;4414;-60
2023/07/03 02:24:23;;;;;;;;;;;;;;;;;;5047377;28;5119;-61
2023/07/03 02:26:49;;;;;;;;;;;;;;;;;;5048153;28;4494;-61
2023/07/03 02:29:15;;;;;;;;;;;;;;;;;;5047975;28;4951;-61
2023/07/03 02:31:40;;;;;;;;;;;;;;;;;;5049201;28;1184;-61
2023/07/03 02:34:05;;;;;;;;;;;;;;;;;;5039217;28;5292;-60
2023/07/03 02:36:33;;;;;;;;;;;;;;;;;;5048099;28;5057;-61
2023/07/03 02:38:58;;;;;;;;;;;;;;;;;;5047763;28;4495;-60
2023/07/03 02:41:24;;;;;;;;;;;;;;;;;;5063799;28;5033;-60
2023/07/03 02:43:49;;;;;;;;;;;;;;;;;;5064936;28;3478;-61
2023/07/03 02:46:14;;;;;;;;;;;;;;;;;;5047280;28;4934;-62
2023/07/03 02:48:40;;;;;;;;;;;;;;;;;;5044824;28;4524;-64
2023/07/03 02:51:05;;;;;;;;;;;;;;;;;;5045801;28;4677;-63
2023/07/03 02:53:30;;;;;;;;;;;;;;;;;;5046758;28;4696;-63
2023/07/03 02:55:55;;;;;;;;;;;;;;;;;;5048547;28;1910;-64
2023/07/03 02:58:21;;;;;;;;;;;;;;;;;;5046713;28;4935;-63
2023/07/03 03:00:50;;;;;;;;;;;;;;;;;;5046983;28;5082;-64
2023/07/03 03:03:16;;;;;;;;;;;;;;;;;;5047903;28;5043;-64
2023/07/03 03:05:41;;;;;;;;;;;;;;;;;;5047813;28;4882;-64
2023/07/03 03:08:07;;;;;;;;;;;;;;;;;;5047105;28;4635;-64
2023/07/03 03:10:33;;;;;;;;;;;;;;;;;;5048502;28;1105;-64
2023/07/03 03:12:58;;;;;;;;;;;;;;;;;;5046094;28;5018;-62
2023/07/03 03:15:23;;;;;;;;;;;;;;;;;;5042640;28;4997;-65
2023/07/03 03:17:48;;;;;;;;;;;;;;;;;;5043927;28;5043;-63
2023/07/03 03:20:14;;;;;;;;;;;;;;;;;;5039898;28;5094;-64
2023/07/03 03:22:42;;;;;;;;;;;;;;;;;;5045491;28;2035;-63
2023/07/03 03:25:07;;;;;;;;;;;;;;;;;;5056598;28;4512;-65
2023/07/03 03:27:33;;;;;;;;;;;;;;;;;;5045259;28;4479;-65
2023/07/03 03:29:58;;;;;;;;;;;;;;;;;;5039997;28;5483;-62
2023/07/03 03:32:23;;;;;;;;;;;;;;;;;;5045933;28;4931;-66
2023/07/03 03:34:50;;;;;;;;;;;;;;;;;;5046831;28;4895;-64
2023/07/03 03:37:15;;;;;;;;;;;;;;;;;;5043407;28;5000;-64
2023/07/03 03:39:40;;;;;;;;;;;;;;;;;;5047376;28;4708;-64
2023/07/03 03:42:06;;;;;;;;;;;;;;;;;;5047660;28;5089;-64
2023/07/03 03:44:31;;;;;;;;;;;;;;;;;;5045027;28;4487;-65
2023/07/03 03:46:56;;;;;;;;;;;;;;;;;;5048357;28;1058;-64
2023/07/03 03:49:21;;;;;;;;;;;;;;;;;;5047864;28;5029;-64
2023/07/03 03:51:47;;;;;;;;;;;;;;;;;;5047528;28;5031;-65
2023/07/03 03:54:12;;;;;;;;;;;;;;;;;;5045719;28;5156;-66
2023/07/03 03:56:37;;;;;;;;;;;;;;;;;;5047754;28;5007;-66
2023/07/03 03:59:03;;;;;;;;;;;;;;;;;;5046518;28;4519;-65
2023/07/03 04:01:28;;;;;;;;;;;;;;;;;;5047043;28;3162;-64
2023/07/03 04:03:54;;;;;;;;;;;;;;;;;;5046947;28;4528;-65
2023/07/03 04:06:19;;;;;;;;;;;;;;;;;;5046524;28;4960;-62
2023/07/03 04:08:44;;;;;;;;;;;;;;;;;;5046848;28;4533;-65
2023/07/03 04:11:09;;;;;;;;;;;;;;;;;;5046233;28;5103;-64
2023/07/03 04:13:35;;;;;;;;;;;;;;;;;;5029900;28;1277;-63
2023/07/03 04:16:00;;;;;;;;;;;;;;;;;;5045917;28;5061;-62
2023/07/03 04:18:26;;;;;;;;;;;;;;;;;;5050957;28;4431;-65
2023/07/03 04:20:51;;;;;;;;;;;;;;;;;;5050807;28;4490;-65
2023/07/03 04:23:16;;;;;;;;;;;;;;;;;;5051380;28;4510;-63
2023/07/03 04:25:42;;;;;;;;;;;;;;;;;;5048600;28;3182;-64
2023/07/03 04:28:08;;;;;;;;;;;;;;;;;;5048053;28;4659;-64
2023/07/03 04:30:33;;;;;;;;;;;;;;;;;;5049999;28;4985;-64
2023/07/03 04:32:58;;;;;;;;;;;;;;;;;;5048373;28;5191;-64
2023/07/03 04:35:23;;;;;;;;;;;;;;;;;;5045816;28;4848;-64
2023/07/03 04:37:51;;;;;;;;;;;;;;;;;;5049071;28;3170;-64
2023/07/03 04:40:17;;;;;;;;;;;;;;;;;;5040489;28;4624;-65
2023/07/03 04:42:42;;;;;;;;;;;;;;;;;;5047596;28;5398;-64
2023/07/03 04:45:08;;;;;;;;;;;;;;;;;;5049713;28;4909;-64
2023/07/03 04:47:37;;;;;;;;;;;;;;;;;;5047855;28;5172;-64
2023/07/03 04:50:02;;;;;;;;;;;;;;;;;;5048246;28;4549;-64
2023/07/03 04:52:28;;;;;;;;;;;;;;;;;;5048188;28;3348;-64
2023/07/03 04:54:53;;;;;;;;;;;;;;;;;;5048084;28;4916;-64
2023/07/03 04:57:19;;;;;;;;;;;;;;;;;;5048636;28;5893;-64
2023/07/03 04:59:44;;;;;;;;;;;;;;;;;;5041922;28;5047;-64
2023/07/03 05:02:11;;;;;;;;;;;;;;;;;;5049042;28;5104;-63
2023/07/03 05:04:37;;;;;;;;;;;;;;;;;;5049901;28;3190;-63
2023/07/03 05:07:02;;;;;;;;;;;;;;;;;;5048542;28;4685;-64
2023/07/03 05:09:27;;;;;;;;;;;;;;;;;;5046397;28;4500;-64
2023/07/03 05:11:53;;;;;;;;;;;;;;;;;;5047639;28;4518;-63
2023/07/03 05:14:18;;;;;;;;;;;;;;;;;;5049516;28;5049;-63
2023/07/03 05:16:43;;;;;;;;;;;;;;;;;;5054546;28;3297;-63
2023/07/03 05:19:09;;;;;;;;;;;;;;;;;;5045444;28;4969;-63
2023/07/03 05:21:34;;;;;;;;;;;;;;;;;;5045252;28;5124;-64
2023/07/03 05:23:59;;;;;;;;;;;;;;;;;;5043339;28;4566;-62
2023/07/03 05:26:24;;;;;;;;;;;;;;;;;;5043252;28;5102;-63
2023/07/03 05:28:50;;;;;;;;;;;;;;;;;;5046885;28;3140;-62
2023/07/03 05:31:15;;;;;;;;;;;;;;;;;;5050736;28;4825;-63
2023/07/03 05:33:40;;;;;;;;;;;;;;;;;;5046871;28;4534;-63
2023/07/03 05:36:06;;;;;;;;;;;;;;;;;;5046566;28;5225;-63
2023/07/03 05:38:31;;;;;;;;;;;;;;;;;;5044367;28;5071;-63
2023/07/03 05:40:57;;;;;;;;;;;;;;;;;;5051183;28;1239;-63
2023/07/03 05:43:22;;;;;;;;;;;;;;;;;;5050965;28;4947;-63
2023/07/03 05:45:47;;;;;;;;;;;;;;;;;;5046319;28;5128;-66
2023/07/03 05:48:13;;;;;;;;;;;;;;;;;;5046515;28;5079;-64
2023/07/03 05:50:38;;;;;;;;;;;;;;;;;;5039429;28;4512;-62
2023/07/03 05:53:03;;;;;;;;;;;;;;;;;;5045196;28;4681;-64
2023/07/03 05:55:28;;;;;;;;;;;;;;;;;;5046930;28;1922;-65
2023/07/03 05:57:54;;;;;;;;;;;;;;;;;;5047956;28;4517;-64
2023/07/03 06:00:19;;;;;;;;;;;;;;;;;;5047729;28;4977;-65
2023/07/03 06:02:45;;;;;;;;;;;;;;;;;;5047442;28;5143;-64
2023/07/03 06:05:11;;;;;;;;;;;;;;;;;;5041376;28;5141;-64
2023/07/03 06:07:36;;;;;;;;;;;;;;;;;;5049122;28;1287;-63
2023/07/03 06:10:01;;;;;;;;;;;;;;;;;;5048425;28;5006;-63
2023/07/03 06:12:29;;;;;;;;;;;;;;;;;;5063574;28;6144;-62
2023/07/03 06:14:57;;;;;;;;;;;;;;;;;;5048137;28;4893;-62
2023/07/03 06:17:23;;;;;;;;;;;;;;;;;;5050082;28;4994;-61
2023/07/03 06:19:48;;;;;;;;;;;;;;;;;;5030640;28;1136;-62
2023/07/03 06:22:14;;;;;;;;;;;;;;;;;;5048118;28;5163;-61
2023/07/03 06:24:39;;;;;;;;;;;;;;;;;;5047991;28;4466;-62
2023/07/03 06:27:06;;;;;;;;;;;;;;;;;;5044677;28;5132;-62
2023/07/03 06:29:31;;;;;;;;;;;;;;;;;;5048996;28;4482;-61
2023/07/03 06:31:56;;;;;;;;;;;;;;;;;;5047881;28;1148;-61
2023/07/03 06:34:22;;;;;;;;;;;;;;;;;;5047310;28;4864;-61
2023/07/03 06:36:47;;;;;;;;;;;;;;;;;;5048146;28;4484;-61
2023/07/03 06:39:12;;;;;;;;;;;;;;;;;;5047584;28;4628;-62
2023/07/03 06:41:37;;;;;;;;;;;;;;;;;;5050665;28;5372;-62
2023/07/03 06:44:03;;;;;;;;;;;;;;;;;;5047358;28;4991;-62
2023/07/03 06:46:28;;;;;;;;;;;;;;;;;;5041995;28;1128;-62
2023/07/03 06:48:55;;;;;;;;;;;;;;;;;;5056408;28;5016;-64
2023/07/03 06:51:20;;;;;;;;;;;;;;;;;;5047464;28;5026;-62
2023/07/03 06:53:45;;;;;;;;;;;;;;;;;;5047239;28;5094;-62
2023/07/03 06:56:11;;;;;;;;;;;;;;;;;;5055625;28;5085;-62
2023/07/03 06:58:36;;;;;;;;;;;;;;;;;;5051307;28;1208;-62
2023/07/03 07:01:08;;;;;;;;;;;;;;;;;;5048067;28;5137;-63
2023/07/03 07:03:33;;;;;;;;;;;;;;;;;;5047411;28;5038;-62
2023/07/03 07:05:58;;;;;;;;;;;;;;;;;;5052000;28;4447;-61
2023/07/03 07:08:24;;;;;;;;;;;;;;;;;;5033726;28;5060;-61
2023/07/03 07:10:49;;;;;;;;;;;;;;;;;;5051361;28;3273;-61
2023/07/03 07:13:14;;;;;;;;;;;;;;;;;;5045350;28;4799;-61
2023/07/03 07:15:40;;;;;;;;;;;;;;;;;;5058279;28;4524;-61
2023/07/03 07:18:05;;;;;;;;;;;;;;;;;;5046894;28;4528;-61
2023/07/03 07:20:35;;;;;;;;;;;;;;;;;;5060948;28;5164;-61
2023/07/03 07:23:00;;;;;;;;;;;;;;;;;;5047053;28;3319;-61
2023/07/03 07:25:26;;;;;;;;;;;;;;;;;;5045888;28;4628;-63
2023/07/03 07:27:51;;;;;;;;;;;;;;;;;;5043936;28;4720;-61
2023/07/03 07:30:16;;;;;;;;;;;;;;;;;;5048532;28;5110;-62
2023/07/03 07:32:41;;;;;;;;;;;;;;;;;;5044687;28;4510;-61
2023/07/03 07:35:07;;;;;;;;;;;;;;;;;;5044827;28;4879;-61
2023/07/03 07:37:32;;;;;;;;;;;;;;;;;;5046129;28;3352;-61
2023/07/03 07:39:57;;;;;;;;;;;;;;;;;;5045659;28;5064;-62
2023/07/03 07:42:23;;;;;;;;;;;;;;;;;;5044401;28;5028;-62
2023/07/03 07:44:48;;;;;;;;;;;;;;;;;;5046794;28;4696;-62
2023/07/03 07:47:13;;;;;;;;;;;;;;;;;;5046272;28;5007;-61
2023/07/03 07:49:39;;;;;;;;;;;;;;;;;;5046816;28;3410;-61
2023/07/03 07:52:05;;;;;;;;;;;;;;;;;;5048701;28;5058;-61
2023/07/03 07:54:30;;;;;;;;;;;;;;;;;;5050210;28;5097;-61
2023/07/03 07:56:56;;;;;;;;;;;;;;;;;;5064322;28;4922;-61
2023/07/03 07:59:21;;;;;;;;;;;;;;;;;;5051369;28;5176;-62
2023/07/03 08:01:46;;;;;;;;;;;;;;;;;;5049859;28;3261;-61
2023/07/03 08:04:11;;;;;;;;;;;;;;;;;;5048894;28;4622;-62
2023/07/03 08:06:37;;;;;;;;;;;;;;;;;;5049298;28;4950;-62
2023/07/03 08:09:02;;;;;;;;;;;;;;;;;;5047690;28;4487;-62
2023/07/03 08:11:28;;;;;;;;;;;;;;;;;;5049029;28;4617;-62
2023/07/03 08:13:53;;;;;;;;;;;;;;;;;;5049895;28;3214;-62
2023/07/03 08:16:18;;;;;;;;;;;;;;;;;;5044008;28;5033;-62
2023/07/03 08:18:44;;;;;;;;;;;;;;;;;;5048401;28;4552;-62
2023/07/03 08:21:09;;;;;;;;;;;;;;;;;;5049991;28;4587;-62
2023/07/03 08:23:34;;;;;;;;;;;;;;;;;;5048869;28;5093;-62
2023/07/03 08:26:00;;;;;;;;;;;;;;;;;;5050996;28;1113;-62
2023/07/03 08:28:25;;;;;;;;;;;;;;;;;;5061911;28;5081;-62
2023/07/03 08:30:51;;;;;;;;;;;;;;;;;;5048484;28;5096;-62
2023/07/03 08:33:16;;;;;;;;;;;;;;;;;;5048460;28;4617;-62
2023/07/03 08:35:41;;;;;;;;;;;;;;;;;;5049258;28;5162;-62
2023/07/03 08:38:08;;;;;;;;;;;;;;;;;;5049328;28;4538;-61
2023/07/03 08:40:33;;;;;;;;;;;;;;;;;;5049990;28;1227;-61
2023/07/03 08:42:59;;;;;;;;;;;;;;;;;;5048651;28;4962;-62
2023/07/03 08:45:35;;;;;;;;;;;;;;;;;;5047811;28;4535;-62
2023/07/03 08:48:00;;;;;;;;;;;;;;;;;;5048045;28;4652;-62
2023/07/03 08:50:25;;;;;;;;;;;;;;;;;;5048850;28;4904;-61
2023/07/03 08:52:56;;;;;;;;;;;;;;;;;;5049899;28;2905;-61
2023/07/03 08:55:22;;;;;;;;;;;;;;;;;;5040874;28;4532;-62
2023/07/03 08:57:47;;;;;;;;;;;;;;;;;;5048854;28;5238;-62
2023/07/03 09:00:13;;;;;;;;;;;;;;;;;;5051292;28;5180;-61
2023/07/03 09:02:46;;;;;;;;;;;;;;;;;;5046585;28;4507;-61
2023/07/03 09:05:23;;;;;;;;;;;;;;;;;;5064694;28;4517;-62
2023/07/03 09:07:50;;;;;;;;;;;;;;;;;;5053019;28;1223;-61
2023/07/03 09:10:17;;;;;;;;;;;;;;;;;;5031549;28;4454;-62
2023/07/03 09:12:44;;;;;;;;;;;;;;;;;;5065074;28;4495;-62
2023/07/03 09:15:09;;;;;;;;;;;;;;;;;;5049211;28;5168;-61
2023/07/03 09:17:35;;;;;;;;;;;;;;;;;;5047636;28;5131;-62
2023/07/03 09:20:00;;;;;;;;;;;;;;;;;;5064962;28;3168;-62
2023/07/03 09:22:27;;;;;;;;;;;;;;;;;;5046910;28;4928;-63
2023/07/03 09:24:53;;;;;;;;;;;;;;;;;;5050683;28;4706;-64
2023/07/03 09:27:19;;;;;;;;;;;;;;;;;;5027388;28;4515;-65
2023/07/03 09:29:44;;;;;;;;;;;;;;;;;;5044413;28;5074;-65
2023/07/03 09:32:21;;;;;;;;;;;;;;;;;;5029770;28;4649;-65
2023/07/03 09:35:05;;;;;;;;;;;;;;;;;;5026318;28;5059;-65
2023/07/03 09:37:31;;;;;;;;;;;;;;;;;;5029602;28;5923;-66
2023/07/03 09:39:56;;;;;;;;;;;;;;;;;;5029256;28;4550;-64
2023/07/03 09:42:21;;;;;;;;;;;;;;;;;;5028714;28;5027;-67
2023/07/03 09:44:47;;;;;;;;;;;;;;;;;;5027104;28;4428;-64
2023/07/03 09:47:22;;;;;;;;;;;;;;;;;;5024447;28;4669;-65
2023/07/03 09:49:47;;;;;;;;;;;;;;;;;;5029413;28;1249;-65
2023/07/03 09:52:13;;;;;;;;;;;;;;;;;;5027573;28;4947;-63
2023/07/03 09:54:40;;;;;;;;;;;;;;;;;;5027622;28;5125;-63
2023/07/03 09:57:06;;;;;;;;;;;;;;;;;;5057652;28;4522;-63
2023/07/03 09:59:31;;;;;;;;;;;;;;;;;;5033780;28;5108;-59
2023/07/03 10:01:57;;;;;;;;;;;;;;;;;;5049564;28;3322;-62
2023/07/03 10:04:23;;;;;;;;;;;;;;;;;;5043976;28;5021;-61
2023/07/03 10:06:59;;;;;;;;;;;;;;;;;;5045433;28;4485;-59
2023/07/03 10:09:26;;;;;;;;;;;;;;;;;;5060762;28;5063;-59
2023/07/03 10:12:02;;;;;;;;;;;;;;;;;;5047317;28;5002;-59
2023/07/03 10:14:48;;;;;;;;;;;;;;;;;;5061551;28;4480;-59
2023/07/03 10:17:13;;;;;;;;;;;;;;;;;;5042651;28;5144;-59
2023/07/03 10:19:42;;;;;;;;;;;;;;;;;;5062707;28;1177;-59
2023/07/03 10:22:07;;;;;;;;;;;;;;;;;;5030666;28;5042;-61
2023/07/03 10:24:35;;;;;;;;;;;;;;;;;;5034564;28;5047;-60
2023/07/03 10:27:00;;;;;;;;;;;;;;;;;;5047465;28;5378;-60
2023/07/03 10:29:26;;;;;;;;;;;;;;;;;;5059869;28;4473;-63
2023/07/03 10:31:54;;;;;;;;;;;;;;;;;;5062194;28;2374;-62
2023/07/03 10:34:43;;;;;;;;;;;;;;;;;;5026251;28;4963;-65
2023/07/03 10:37:10;;;;;;;;;;;;;;;;;;5039135;28;4691;-63
2023/07/03 10:39:41;;;;;;;;;;;;;;;;;;5051343;28;4537;-66
2023/07/03 10:42:09;;;;;;;;;;;;;;;;;;5048075;28;4743;-65
2023/07/03 10:44:36;;;;;;;;;;;;;;;;;;5031248;28;5004;-66
2023/07/03 10:47:06;;;;;;;;;;;;;;;;;;5043341;28;4539;-62
2023/07/03 10:49:32;;;;;;;;;;;;;;;;;;5029083;28;1234;-62
2023/07/03 10:52:05;;;;;;;;;;;;;;;;;;5045588;28;5005;-66
2023/07/03 10:54:35;;;;;;;;;;;;;;;;;;5026408;28;4846;-64
2023/07/03 10:57:01;;;;;;;;;;;;;;;;;;5024676;28;4941;-67
2023/07/03 10:59:33;;;;;;;;;;;;;;;;;;5030648;28;4498;-64
2023/07/03 11:02:17;;;;;;;;;;;;;;;;;;5048284;28;2047;-64
2023/07/03 11:04:54;;;;;;;;;;;;;;;;;;5044050;28;5110;-63
2023/07/03 11:07:26;;;;;;;;;;;;;;;;;;5044037;28;4913;-63
2023/07/03 11:09:54;;;;;;;;;;;;;;;;;;5046805;28;5109;-64
2023/07/03 11:12:19;;;;;;;;;;;;;;;;;;5046410;28;5091;-66
2023/07/03 11:14:44;;;;;;;;;;;;;;;;;;5043146;28;5099;-66
2023/07/03 11:17:12;;;;;;;;;;;;;;;;;;5046356;28;4529;-65
2023/07/03 11:19:41;;;;;;;;;;;;;;;;;;5044117;28;3248;-66
2023/07/03 11:22:13;;;;;;;;;;;;;;;;;;5046152;28;5023;-64
2023/07/03 11:24:42;;;;;;;;;;;;;;;;;;5046367;28;5000;-67
2023/07/03 11:27:10;;;;;;;;;;;;;;;;;;5053213;28;4540;-66
2023/07/03 11:29:35;;;;;;;;;;;;;;;;;;5045761;28;5054;-67
2023/07/03 11:32:00;;;;;;;;;;;;;;;;;;5012563;28;3356;-67
2023/07/03 11:34:25;;;;;;;;;;;;;;;;;;5028646;28;5156;-68
2023/07/03 11:36:51;;;;;;;;;;;;;;;;;;5010948;28;5196;-63
2023/07/03 11:39:19;;;;;;;;;;;;;;;;;;5024409;28;4723;-65
2023/07/03 11:41:48;;;;;;;;;;;;;;;;;;5028695;28;5950;-65
2023/07/03 11:44:16;;;;;;;;;;;;;;;;;;5029044;28;5206;-65
2023/07/03 11:46:42;;;;;;;;;;;;;;;;;;5030957;28;1150;-65
2023/07/03 11:49:10;;;;;;;;;;;;;;;;;;5029351;28;5003;-65
2023/07/03 11:51:35;;;;;;;;;;;;;;;;;;5058015;28;4886;-66
2023/07/03 11:54:12;;;;;;;;;;;;;;;;;;5069917;28;5135;-65
2023/07/03 11:56:39;;;;;;;;;;;;;;;;;;5044140;28;4535;-64
2023/07/03 11:59:05;;;;;;;;;;;;;;;;;;5032437;28;4520;-67
2023/07/03 12:01:31;;;;;;;;;;;;;;;;;;5030574;28;1152;-67
2023/07/03 12:03:57;;;;;;;;;;;;;;;;;;5045167;28;5051;-66
2023/07/03 12:06:38;;;;;;;;;;;;;;;;;;5030131;28;5148;-66
2023/07/03 12:09:18;;;;;;;;;;;;;;;;;;5034689;28;4687;-65
2023/07/03 12:11:59;;;;;;;;;;;;;;;;;;5031669;28;4855;-65
2023/07/03 12:14:39;;;;;;;;;;;;;;;;;;5027861;28;4538;-64
2023/07/03 12:17:15;;;;;;;;;;;;;;;;;;5029018;28;5061;-66
2023/07/03 12:19:40;;;;;;;;;;;;;;;;;;5035495;28;1187;-65
2023/07/03 12:22:05;;;;;;;;;;;;;;;;;;5031527;28;4489;-66
2023/07/03 12:24:30;;;;;;;;;;;;;;;;;;5031379;28;5205;-65
2023/07/03 12:27:00;;;;;;;;;;;;;;;;;;5034524;28;5347;-66
2023/07/03 12:29:26;;;;;;;;;;;;;;;;;;5047888;28;5048;-66
2023/07/03 12:31:58;;;;;;;;;;;;;;;;;;5049607;28;1987;-66
2023/07/03 12:34:25;;;;;;;;;;;;;;;;;;5027188;28;4909;-65
2023/07/03 12:36:50;;;;;;;;;;;;;;;;;;5026699;28;5078;-66
2023/07/03 12:39:15;;;;;;;;;;;;;;;;;;5030295;28;5108;-66
2023/07/03 12:41:41;;;;;;;;;;;;;;;;;;5027828;28;4952;-66
2023/07/03 12:44:07;;;;;;;;;;;;;;;;;;5029659;28;4655;-66
2023/07/03 12:46:34;;;;;;;;;;;;;;;;;;5031507;28;1850;-66
2023/07/03 12:49:03;;;;;;;;;;;;;;;;;;5048823;28;5118;-66
2023/07/03 12:51:28;;;;;;;;;;;;;;;;;;5048851;28;5079;-65
2023/07/03 12:53:53;;;;;;;;;;;;;;;;;;5047749;28;4612;-67
2023/07/03 12:56:19;;;;;;;;;;;;;;;;;;5062282;28;4827;-66
2023/07/03 12:58:44;;;;;;;;;;;;;;;;;;5047232;28;3335;-66
2023/07/03 13:01:09;;;;;;;;;;;;;;;;;;5046675;28;4979;-64
2023/07/03 13:03:38;;;;;;;;;;;;;;;;;;5048202;28;4564;-63
2023/07/03 13:06:13;;;;;;;;;;;;;;;;;;5060433;28;5011;-64
2023/07/03 13:08:38;;;;;;;;;;;;;;;;;;5062705;28;4637;-65
2023/07/03 13:11:05;;;;;;;;;;;;;;;;;;5041333;28;5032;-65
2023/07/03 13:13:30;;;;;;;;;;;;;;;;;;5049033;28;1178;-65
2023/07/03 13:15:55;;;;;;;;;;;;;;;;;;5047857;28;4610;-65
2023/07/03 13:18:22;;;;;;;;;;;;;;;;;;5047586;28;4498;-65
2023/07/03 13:20:56;;;;;;;;;;;;;;;;;;5046392;28;5042;-64
2023/07/03 13:23:28;;;;;;;;;;;;;;;;;;5046146;28;5380;-64
2023/07/03 13:25:55;;;;;;;;;;;;;;;;;;5048235;28;3408;-62
2023/07/03 13:28:24;;;;;;;;;;;;;;;;;;5060644;28;5570;-62
2023/07/03 13:31:06;;;;;;;;;;;;;;;;;;5048203;28;4810;-60
2023/07/03 13:33:34;;;;;;;;;;;;;;;;;;5046847;28;4960;-65
2023/07/03 13:36:07;;;;;;;;;;;;;;;;;;5048250;28;5136;-63
2023/07/03 13:38:32;;;;;;;;;;;;;;;;;;5063429;28;5132;-63
2023/07/03 13:40:58;;;;;;;;;;;;;;;;;;5048343;28;1265;-66
2023/07/03 13:43:28;;;;;;;;;;;;;;;;;;5062856;28;5688;-66
2023/07/03 13:45:57;;;;;;;;;;;;;;;;;;5047354;28;5139;-64
2023/07/03 13:48:23;;;;;;;;;;;;;;;;;;5061819;28;4661;-66
2023/07/03 13:50:49;;;;;;;;;;;;;;;;;;5029730;28;5116;-65
2023/07/03 13:53:14;;;;;;;;;;;;;;;;;;5047656;28;4850;-66
2023/07/03 13:55:39;;;;;;;;;;;;;;;;;;5047707;28;1975;-66
2023/07/03 13:58:05;;;;;;;;;;;;;;;;;;5047379;28;4676;-65
2023/07/03 14:00:30;;;;;;;;;;;;;;;;;;5047972;28;5041;-65
2023/07/03 14:02:55;;;;;;;;;;;;;;;;;;5033833;28;5056;-64
2023/07/03 14:05:21;;;;;;;;;;;;;;;;;;5047098;28;4481;-64
2023/07/03 14:07:46;;;;;;;;;;;;;;;;;;5047838;28;1152;-63
2023/07/03 14:10:11;;;;;;;;;;;;;;;;;;5054369;28;5022;-67
2023/07/03 14:12:37;;;;;;;;;;;;;;;;;;5047361;28;5548;-70
2023/07/03 14:15:11;;;;;;;;;;;;;;;;;;5049726;28;5090;-63
2023/07/03 14:17:36;;;;;;;;;;;;;;;;;;5046554;28;4505;-67
2023/07/03 14:20:02;;;;;;;;;;;;;;;;;;5046881;28;4999;-64
2023/07/03 14:22:27;;;;;;;;;;;;;;;;;;5046922;28;3182;-67
2023/07/03 14:24:52;;;;;;;;;;;;;;;;;;5039965;28;5049;-67
2023/07/03 14:27:18;;;;;;;;;;;;;;;;;;5044153;28;4843;-68
2023/07/03 14:29:43;;;;;;;;;;;;;;;;;;5044374;28;5073;-67
2023/07/03 14:32:08;;;;;;;;;;;;;;;;;;5040226;28;4696;-67
2023/07/03 14:34:34;;;;;;;;;;;;;;;;;;5046803;28;4908;-70
2023/07/03 14:37:03;;;;;;;;;;;;;;;;;;5046344;28;5129;-66
2023/07/03 14:39:28;;;;;;;;;;;;;;;;;;5039490;28;4539;-67
2023/07/03 14:41:53;;;;;;;;;;;;;;;;;;5043202;28;5177;-68
2023/07/03 14:44:18;;;;;;;;;;;;;;;;;;5043689;28;4520;-66
2023/07/03 14:46:44;;;;;;;;;;;;;;;;;;5046271;28;3012;-66
2023/07/03 14:49:09;;;;;;;;;;;;;;;;;;5042349;28;5243;-67
2023/07/03 14:51:34;;;;;;;;;;;;;;;;;;5045730;28;5101;-66
2023/07/03 14:54:00;;;;;;;;;;;;;;;;;;5043180;28;5006;-67
2023/07/03 14:56:25;;;;;;;;;;;;;;;;;;5044995;28;4934;-66
2023/07/03 14:58:50;;;;;;;;;;;;;;;;;;5043168;28;3407;-66
2023/07/03 15:01:15;;;;;;;;;;;;;;;;;;5045188;28;5108;-66
2023/07/03 15:03:41;;;;;;;;;;;;;;;;;;5042946;28;4963;-66
2023/07/03 15:06:06;;;;;;;;;;;;;;;;;;5049151;28;5215;-66
2023/07/03 15:08:31;;;;;;;;;;;;;;;;;;5043757;28;5229;-66
2023/07/03 15:10:57;;;;;;;;;;;;;;;;;;5046003;28;3341;-68
2023/07/03 15:13:22;;;;;;;;;;;;;;;;;;5034352;28;5052;-65
2023/07/03 15:15:47;;;;;;;;;;;;;;;;;;5037818;28;4480;-66
2023/07/03 15:18:13;;;;;;;;;;;;;;;;;;5041964;28;5131;-67
2023/07/03 15:20:38;;;;;;;;;;;;;;;;;;5043121;28;4988;-65
2023/07/03 15:23:04;;;;;;;;;;;;;;;;;;5043743;28;5090;-65
2023/07/03 15:25:29;;;;;;;;;;;;;;;;;;5041736;28;3321;-67
2023/07/03 15:27:54;;;;;;;;;;;;;;;;;;5041284;28;4529;-66
2023/07/03 15:30:19;;;;;;;;;;;;;;;;;;5043916;28;5531;-65
2023/07/03 15:32:49;;;;;;;;;;;;;;;;;;5063841;28;5074;-66
2023/07/03 15:35:14;;;;;;;;;;;;;;;;;;5044998;28;5275;-66
2023/07/03 15:37:41;;;;;;;;;;;;;;;;;;5044810;28;3592;-67
2023/07/03 15:40:06;;;;;;;;;;;;;;;;;;5046094;28;5208;-66
2023/07/03 15:42:31;;;;;;;;;;;;;;;;;;5050538;28;5000;-66
2023/07/03 15:44:57;;;;;;;;;;;;;;;;;;5045122;28;5236;-67
2023/07/03 15:47:22;;;;;;;;;;;;;;;;;;5026782;28;4905;-66
2023/07/03 15:49:48;;;;;;;;;;;;;;;;;;5046725;28;1066;-66
2023/07/03 15:52:13;;;;;;;;;;;;;;;;;;5045909;28;4970;-66
2023/07/03 15:54:38;;;;;;;;;;;;;;;;;;5049662;28;5180;-67
2023/07/03 15:57:04;;;;;;;;;;;;;;;;;;5045196;28;5429;-66
2023/07/03 15:59:29;;;;;;;;;;;;;;;;;;5061592;28;5144;-66
2023/07/03 16:01:55;;;;;;;;;;;;;;;;;;5052670;28;1227;-65
2023/07/03 16:04:20;;;;;;;;;;;;;;;;;;5045462;28;4833;-66
2023/07/03 16:06:46;;;;;;;;;;;;;;;;;;5046125;28;4519;-66
2023/07/03 16:09:11;;;;;;;;;;;;;;;;;;5051182;28;4858;-67
2023/07/03 16:11:37;;;;;;;;;;;;;;;;;;5045678;28;5678;-66
2023/07/03 16:14:02;;;;;;;;;;;;;;;;;;5052352;28;4969;-66
2023/07/03 16:16:27;;;;;;;;;;;;;;;;;;5050096;28;2088;-66
2023/07/03 16:18:54;;;;;;;;;;;;;;;;;;5049242;28;4432;-67
2023/07/03 16:21:20;;;;;;;;;;;;;;;;;;5048339;28;4902;-66
2023/07/03 16:23:45;;;;;;;;;;;;;;;;;;5051253;28;4450;-66
2023/07/03 16:26:10;;;;;;;;;;;;;;;;;;5049123;28;4481;-67
2023/07/03 16:28:36;;;;;;;;;;;;;;;;;;5046289;28;1141;-67
2023/07/03 16:31:05;;;;;;;;;;;;;;;;;;5049435;28;4980;-67
2023/07/03 16:33:31;;;;;;;;;;;;;;;;;;5052711;28;4894;-67
2023/07/03 16:36:00;;;;;;;;;;;;;;;;;;5048700;28;5194;-67
2023/07/03 16:38:26;;;;;;;;;;;;;;;;;;5049422;28;4990;-66
2023/07/03 16:40:51;;;;;;;;;;;;;;;;;;5049404;28;1163;-66
2023/07/03 16:43:16;;;;;;;;;;;;;;;;;;5048770;28;5015;-66
2023/07/03 16:45:42;;;;;;;;;;;;;;;;;;5048834;28;4627;-66
2023/07/03 16:48:07;;;;;;;;;;;;;;;;;;5049810;28;4898;-66
2023/07/03 16:50:33;;;;;;;;;;;;;;;;;;5046876;28;4656;-66
2023/07/03 16:52:58;;;;;;;;;;;;;;;;;;5047603;28;1148;-66
2023/07/03 16:55:23;;;;;;;;;;;;;;;;;;5048849;28;5014;-67
2023/07/03 16:57:48;;;;;;;;;;;;;;;;;;5048771;28;5082;-66
2023/07/03 17:00:14;;;;;;;;;;;;;;;;;;5056357;28;5015;-66